Time;durP1;ratioP1;P1;durP2;ratioP2;P2;SDS_P1;SDS_P2;PMS_P1;PMS_P2;Temp;Humidity;BMP_temperature;BMP_pressure;BME280_temperature;BME280_humidity;BME280_pressure;Samples;Min_cycle;Max_cycle;Signal;HPM_P1;HPM_P2
2022/08/07 00:00:28;;;;;;;11.07;7.03;;;;;;;24.61;47.92;99950.38;5049149;28;20508;-57
2022/08/07 00:02:56;;;;;;;9.20;7.15;;;;;;;24.47;47.95;99932.28;5051590;28;20480;-58
2022/08/07 00:05:22;;;;;;;8.85;7.35;;;;;;;24.56;48.37;99958.41;5049208;28;20075;-56
2022/08/07 00:07:47;;;;;;;9.95;7.55;;;;;;;24.52;48.41;99954.41;5050672;28;20029;-55
2022/08/07 00:10:13;;;;;;;11.38;7.95;;;;;;;24.47;48.64;99949.56;5049379;28;20056;-57
2022/08/07 00:12:39;;;;;;;9.38;7.43;;;;;;;24.45;48.68;99954.41;5042667;28;20084;-58
2022/08/07 00:15:05;;;;;;;12.75;7.45;;;;;;;24.31;49.21;99933.56;5030740;28;20109;-58
2022/08/07 00:17:30;;;;;;;11.45;7.15;;;;;;;24.27;48.72;99932.31;5037706;28;20029;-57
2022/08/07 00:19:55;;;;;;;9.90;7.35;;;;;;;24.36;48.95;99942.84;5044715;28;20030;-57
2022/08/07 00:22:21;;;;;;;9.07;7.07;;;;;;;24.34;49.10;99944.09;5030323;28;20041;-59
2022/08/07 00:24:46;;;;;;;13.07;7.68;;;;;;;24.32;49.04;99946.19;5030585;28;20037;-56
2022/08/07 00:27:12;;;;;;;11.75;7.30;;;;;;;24.29;49.65;99943.88;5031306;28;20169;-57
2022/08/07 00:29:37;;;;;;;9.18;6.75;;;;;;;24.23;48.95;99938.22;5031307;28;20041;-53
2022/08/07 00:32:04;;;;;;;10.38;7.18;;;;;;;24.25;49.34;99953.59;5031390;28;20025;-58
2022/08/07 00:34:30;;;;;;;8.27;7.13;;;;;;;24.21;49.42;99937.59;5030399;28;20029;-57
2022/08/07 00:36:56;;;;;;;9.00;7.20;;;;;;;24.19;49.11;99936.09;5030440;28;20161;-55
2022/08/07 00:39:21;;;;;;;7.95;7.10;;;;;;;24.17;49.61;99943.69;5043619;28;20545;-58
2022/08/07 00:41:53;;;;;;;8.50;7.28;;;;;;;24.18;49.42;99940.75;5046685;28;20041;-56
2022/08/07 00:44:19;;;;;;;8.02;7.13;;;;;;;24.11;49.85;99941.81;5048432;28;20144;-56
2022/08/07 00:46:45;;;;;;;8.00;7.22;;;;;;;24.09;49.56;99939.25;5046459;28;20111;-57
2022/08/07 00:49:10;;;;;;;9.85;7.03;;;;;;;24.10;49.23;99943.69;5032886;28;20029;-58
2022/08/07 00:51:36;;;;;;;8.40;6.43;;;;;;;24.10;49.09;99937.38;5037430;28;20029;-56
2022/08/07 00:54:02;;;;;;;7.97;6.60;;;;;;;24.09;49.30;99942.00;5050719;28;20112;-58
2022/08/07 00:56:28;;;;;;;8.30;6.55;;;;;;;24.06;48.96;99928.75;5048769;28;20025;-57
2022/08/07 00:58:54;;;;;;;9.50;7.10;;;;;;;24.08;49.15;99932.13;5050230;28;20473;-55
2022/08/07 01:01:20;;;;;;;10.48;7.05;;;;;;;23.90;49.30;99906.22;5050747;28;20395;-54
2022/08/07 01:03:47;;;;;;;9.63;6.95;;;;;;;23.99;49.27;99933.34;5040609;28;20084;-56
2022/08/07 01:06:14;;;;;;;8.90;6.72;;;;;;;23.97;49.61;99938.19;5030224;28;20099;-57
2022/08/07 01:08:40;;;;;;;12.50;7.07;;;;;;;23.93;49.86;99938.63;5030430;28;20040;-57
2022/08/07 01:11:06;;;;;;;10.60;7.13;;;;;;;23.85;49.90;99929.78;5031303;28;20049;-58
2022/08/07 01:13:32;;;;;;;12.90;6.82;;;;;;;23.86;49.76;99932.28;5029886;28;20034;-55
2022/08/07 01:15:58;;;;;;;12.63;6.72;;;;;;;23.74;49.74;99925.75;5030528;28;20488;-57
2022/08/07 01:18:23;;;;;;;9.80;6.22;;;;;;;23.88;49.09;99941.16;5044167;28;20428;-57
2022/08/07 01:21:24;;;;;;;9.07;6.40;;;;;;;24.05;48.59;99946.22;5053272;28;20053;-59
2022/08/07 01:23:52;;;;;;;8.88;6.25;;;;;;;23.91;49.03;99939.88;5039011;28;20551;-54
2022/08/07 01:26:21;;;;;;;8.63;5.95;;;;;;;23.91;48.75;99937.13;5034357;28;20041;-59
2022/08/07 01:28:49;;;;;;;7.68;6.50;;;;;;;23.86;48.95;99935.00;5035406;28;20021;-59
2022/08/07 01:31:15;;;;;;;8.10;6.43;;;;;;;23.84;48.86;99948.06;5034428;28;20044;-59
2022/08/07 01:33:41;;;;;;;9.20;5.93;;;;;;;23.80;49.57;99933.13;5034071;28;20033;-58
2022/08/07 01:36:08;;;;;;;11.02;6.45;;;;;;;23.76;49.43;99931.88;5035121;28;20045;-59
2022/08/07 01:38:34;;;;;;;8.88;6.03;;;;;;;23.79;48.98;99936.91;5033987;28;20500;-59
2022/08/07 01:41:02;;;;;;;10.18;5.85;;;;;;;23.81;48.80;99940.28;5034228;28;20465;-58
2022/08/07 01:43:29;;;;;;;12.38;6.18;;;;;;;23.84;49.01;99947.22;5052647;28;20037;-55
2022/08/07 01:45:56;;;;;;;7.97;6.53;;;;;;;23.83;48.96;99932.69;5053195;28;20041;-57
2022/08/07 01:48:21;;;;;;;6.95;5.78;;;;;;;23.85;48.64;99941.53;5047200;28;20037;-56
2022/08/07 01:50:56;;;;;;;9.35;6.38;;;;;;;23.92;48.88;99936.06;5034073;28;20026;-60
2022/08/07 01:53:23;;;;;;;7.22;6.53;;;;;;;23.89;48.76;99936.50;5033663;28;20037;-56
2022/08/07 01:55:51;;;;;;;7.80;6.63;;;;;;;23.90;49.15;99943.66;5034420;28;20025;-56
2022/08/07 01:58:20;;;;;;;10.45;7.38;;;;;;;23.93;49.32;99949.56;5037870;28;20150;-56
2022/08/07 02:00:50;;;;;;;8.25;6.97;;;;;;;23.82;49.01;99913.78;5053597;28;20044;-58
2022/08/07 02:03:19;;;;;;;9.55;7.03;;;;;;;23.96;49.05;99940.06;5043092;28;20033;-58
2022/08/07 02:05:50;;;;;;;10.88;7.38;;;;;;;23.98;48.96;99937.97;5032981;28;20495;-57
2022/08/07 02:08:22;;;;;;;12.82;6.88;;;;;;;24.02;48.84;99936.56;5033916;28;20414;-59
2022/08/07 02:10:51;;;;;;;14.10;7.57;;;;;;;24.04;48.72;99928.13;5033163;28;20111;-60
2022/08/07 02:13:38;;;;;;;11.52;7.07;;;;;;;24.04;48.75;99928.13;5032463;28;20049;-57
2022/08/07 02:16:07;;;;;;;14.90;6.93;;;;;;;24.06;48.92;99926.00;5034525;28;20048;-57
2022/08/07 02:18:36;;;;;;;12.20;7.22;;;;;;;24.07;48.79;99928.56;5033393;28;20104;-58
2022/08/07 02:21:06;;;;;;;14.63;7.20;;;;;;;24.05;48.99;99921.59;5034300;28;20577;-55
2022/08/07 02:23:38;;;;;;;11.75;7.30;;;;;;;24.17;48.46;99922.66;5033552;28;20126;-58
2022/08/07 02:26:06;;;;;;;13.73;7.07;;;;;;;24.14;48.71;99923.09;5033040;28;20148;-58
2022/08/07 02:28:35;;;;;;;14.30;7.13;;;;;;;24.16;48.62;99926.44;5034265;28;20029;-58
2022/08/07 02:31:04;;;;;;;12.20;7.20;;;;;;;24.21;48.55;99920.31;5031807;28;20038;-58
2022/08/07 02:33:30;;;;;;;10.40;6.53;;;;;;;24.17;48.51;99908.97;5033968;28;20071;-56
2022/08/07 02:35:57;;;;;;;12.30;7.40;;;;;;;24.11;48.56;99896.13;5032734;28;20099;-56
2022/08/07 02:38:28;;;;;;;16.00;7.45;;;;;;;24.29;48.77;99924.75;5033040;28;20042;-58
2022/08/07 02:40:54;;;;;;;11.35;7.28;;;;;;;24.31;48.48;99925.38;5033756;28;20634;-57
2022/08/07 02:43:21;;;;;;;14.77;7.53;;;;;;;24.34;48.32;99924.94;5032408;28;20033;-58
2022/08/07 02:45:50;;;;;;;9.00;6.63;;;;;;;24.37;48.52;99928.09;5035779;28;20036;-56
2022/08/07 02:48:15;;;;;;;9.68;6.85;;;;;;;24.27;48.31;99904.97;5052735;28;20033;-55
2022/08/07 02:50:43;;;;;;;11.13;7.35;;;;;;;24.47;48.29;99921.34;5052551;28;20033;-55
2022/08/07 02:53:16;;;;;;;7.72;6.50;;;;;;;24.57;48.46;99929.97;5050682;28;20021;-56
2022/08/07 02:55:46;;;;;;;11.35;8.05;;;;;;;24.45;48.23;99907.03;5052504;28;20029;-57
2022/08/07 02:58:16;;;;;;;13.65;7.75;;;;;;;24.59;48.19;99918.78;5049526;28;20385;-57
2022/08/07 03:00:44;;;;;;;11.95;8.15;;;;;;;24.64;48.37;99927.22;5051879;28;20056;-56
2022/08/07 03:03:10;;;;;;;16.20;7.93;;;;;;;24.65;48.52;99932.47;5051792;28;20033;-58
2022/08/07 03:05:36;;;;;;;15.55;8.43;;;;;;;24.71;48.30;99933.50;5036315;28;20041;-54
2022/08/07 03:08:08;;;;;;;11.75;8.30;;;;;;;24.83;48.13;99935.59;5032245;28;20466;-59
2022/08/07 03:10:36;;;;;;;12.50;8.10;;;;;;;24.81;48.21;99933.09;5032863;28;20373;-56
2022/08/07 03:13:02;;;;;;;12.82;8.48;;;;;;;24.86;47.86;99922.34;5048287;28;20040;-59
2022/08/07 03:15:28;;;;;;;15.23;8.38;;;;;;;24.97;47.53;99931.78;5051425;28;20029;-58
2022/08/07 03:17:54;;;;;;;11.55;7.63;;;;;;;25.02;47.50;99929.22;5049232;28;20060;-57
2022/08/07 03:20:22;;;;;;;9.70;8.13;;;;;;;25.12;47.74;99941.63;5050565;28;20036;-56
2022/08/07 03:22:49;;;;;;;12.27;7.97;;;;;;;25.16;47.19;99929.16;5049319;28;20029;-59
2022/08/07 03:25:16;;;;;;;9.85;7.80;;;;;;;25.28;47.32;99934.81;5051162;28;20032;-58
2022/08/07 03:28:04;;;;;;;12.50;7.00;;;;;;;25.39;45.85;99933.28;5049835;28;20049;-55
2022/08/07 03:30:31;;;;;;;10.73;6.95;;;;;;;25.49;46.15;99926.28;5048854;28;20128;-58
2022/08/07 03:32:59;;;;;;;9.95;7.07;;;;;;;25.60;46.46;99932.97;5051064;28;20111;-55
2022/08/07 03:35:27;;;;;;;8.63;6.82;;;;;;;25.70;45.21;99931.63;5050955;28;20025;-59
2022/08/07 03:37:58;;;;;;;13.98;7.35;;;;;;;25.67;44.99;99915.63;5036339;28;20113;-56
2022/08/07 03:40:25;;;;;;;12.43;7.30;;;;;;;25.89;44.87;99924.31;5030668;28;20040;-57
2022/08/07 03:42:51;;;;;;;9.27;6.40;;;;;;;25.98;44.81;99919.41;5031512;28;20029;-58
2022/08/07 03:45:18;;;;;;;8.73;6.07;;;;;;;26.12;44.25;99920.97;5030642;28;20124;-55
2022/08/07 03:47:44;;;;;;;8.52;5.97;;;;;;;26.35;43.98;99925.03;5030361;28;20056;-58
2022/08/07 03:50:10;;;;;;;9.20;6.20;;;;;;;26.84;42.61;99921.53;5042316;28;20458;-60
2022/08/07 03:52:36;;;;;;;11.30;6.03;;;;;;;27.85;40.50;99921.06;5051011;28;20067;-57
2022/08/07 03:55:03;;;;;;;14.32;6.22;;;;;;;28.97;38.46;99920.34;5050448;28;20060;-58
2022/08/07 03:57:31;;;;;;;12.38;6.03;;;;;;;30.08;35.94;99925.72;5048738;28;20029;-57
2022/08/07 03:59:57;;;;;;;12.85;6.30;;;;;;;31.20;33.85;99905.44;5050355;28;20040;-58
2022/08/07 04:02:23;;;;;;;9.05;5.63;;;;;;;32.28;32.21;99915.84;5048491;28;20048;-59
2022/08/07 04:04:49;;;;;;;10.00;6.25;;;;;;;33.44;29.99;99924.44;5050360;28;20120;-61
2022/08/07 04:07:16;;;;;;;7.57;5.40;;;;;;;34.44;28.42;99921.41;5050393;28;20032;-58
2022/08/07 04:09:43;;;;;;;9.47;5.53;;;;;;;35.27;26.62;99916.41;5004463;28;1256347;-60
2022/08/07 04:12:09;;;;;;;8.05;5.65;;;;;;;36.08;25.67;99917.25;5051123;28;20051;-59
2022/08/07 04:14:34;;;;;;;9.68;5.50;;;;;;;36.82;24.76;99924.53;5050847;28;20037;-60
2022/08/07 04:17:00;;;;;;;10.07;5.18;;;;;;;37.48;23.46;99924.78;5038666;28;20114;-58
2022/08/07 04:19:26;;;;;;;5.75;5.13;;;;;;;38.19;22.49;99933.16;5030697;28;20040;-59
2022/08/07 04:21:52;;;;;;;8.45;4.97;;;;;;;38.81;22.06;99928.34;5032817;28;20476;-58
2022/08/07 04:24:18;;;;;;;8.38;5.68;;;;;;;39.29;21.60;99907.44;5043527;28;20520;-57
2022/08/07 04:26:44;;;;;;;5.57;5.03;;;;;;;39.79;20.80;99930.09;5040343;28;20029;-61
2022/08/07 04:29:09;;;;;;;8.98;5.90;;;;;;;40.28;20.41;99928.31;5038566;28;20056;-53
2022/08/07 04:31:38;;;;;;;6.18;4.97;;;;;;;40.85;19.64;99943.56;5038573;28;20162;-57
2022/08/07 04:34:06;;;;;;;10.05;5.07;;;;;;;41.48;18.98;99925.69;5040194;28;20489;-62
2022/08/07 04:36:32;;;;;;;7.93;5.32;;;;;;;41.74;18.18;99922.06;5039444;28;20918;-55
2022/08/07 04:38:58;;;;;;;9.75;5.00;;;;;;;42.08;17.56;99925.97;5039277;28;20022;-57
2022/08/07 04:41:23;;;;;;;7.85;4.78;;;;;;;42.50;17.35;99930.16;5038799;28;20047;-56
2022/08/07 04:43:49;;;;;;;5.90;5.05;;;;;;;43.00;17.04;99928.56;5037317;28;20465;-58
2022/08/07 04:46:20;;;;;;;5.25;4.68;;;;;;;43.80;16.53;99923.16;5038842;28;20106;-59
2022/08/07 04:49:08;;;;;;;8.57;4.60;;;;;;;44.25;15.97;99936.44;5039022;28;20040;-59
2022/08/07 04:51:36;;;;;;;7.65;4.90;;;;;;;44.48;15.53;99930.34;5038825;28;20052;-59
2022/08/07 04:54:14;;;;;;;6.88;4.70;;;;;;;44.61;15.26;99939.66;5038953;28;20094;-57
2022/08/07 04:57:06;;;;;;;5.40;4.63;;;;;;;45.17;15.79;99938.22;5041500;28;20029;-55
2022/08/07 04:59:40;;;;;;;5.18;4.50;;;;;;;45.13;14.92;99940.13;5042489;28;20030;-57
2022/08/07 05:02:25;;;;;;;4.90;4.40;;;;;;;45.59;14.77;99934.22;5027279;28;20030;-58
2022/08/07 05:05:23;;;;;;;8.10;4.30;;;;;;;45.97;14.63;99944.22;5042729;28;20450;-56
2022/08/07 05:08:31;;;;;;;6.90;4.53;;;;;;;46.44;14.25;99936.94;5039469;28;20041;-56
2022/08/07 05:11:26;;;;;;;8.07;4.10;;;;;;;46.86;14.01;99943.22;5015704;28;20439;-57
2022/08/07 05:13:54;;;;;;;;;;;;;;;48.14;13.81;99939.84;5036149;28;20136;-56
2022/08/07 05:16:21;;;;;;;6.07;4.10;;;;;;;47.25;12.33;99929.13;5042022;28;19913;-58
2022/08/07 05:18:54;;;;;;;5.10;3.85;;;;;;;47.61;12.69;99948.13;5043047;28;20103;-60
2022/08/07 05:21:24;;;;;;;4.15;3.65;;;;;;;47.56;12.27;99950.06;5042282;28;20037;-58
2022/08/07 05:23:58;;;;;;;3.90;3.50;;;;;;;47.56;12.24;99921.72;5051691;28;20380;-59
2022/08/07 05:26:26;;;;;;;9.73;3.72;;;;;;;47.67;11.99;99932.47;5054249;28;20033;-59
2022/08/07 05:28:55;;;;;;;4.28;3.88;;;;;;;47.85;11.82;99942.16;5054379;28;20116;-58
2022/08/07 05:31:24;;;;;;;5.38;4.03;;;;;;;48.11;11.85;99934.13;5036972;28;20087;-59
2022/08/07 05:33:51;;;;;;;8.20;4.32;;;;;;;48.36;11.40;99928.88;5033872;28;20118;-59
2022/08/07 05:36:19;;;;;;;7.15;4.30;;;;;;;48.89;11.46;99938.66;5034922;28;20041;-58
2022/08/07 05:38:46;;;;;;;5.72;4.28;;;;;;;49.24;10.76;99928.19;5034105;28;20029;-61
2022/08/07 05:41:12;;;;;;;5.78;4.00;;;;;;;49.53;10.63;99932.25;5034370;28;20041;-59
2022/08/07 05:43:38;;;;;;;4.68;3.83;;;;;;;49.84;10.73;99941.53;5045321;28;20044;-56
2022/08/07 05:46:04;;;;;;;4.53;4.13;;;;;;;50.20;10.22;99932.53;5053532;28;20036;-57
2022/08/07 05:48:30;;;;;;;5.45;3.85;;;;;;;50.61;9.90;99943.06;5053752;28;20029;-58
2022/08/07 05:50:58;;;;;;;4.38;3.80;;;;;;;51.51;9.26;99954.19;5051942;28;20436;-58
2022/08/07 05:53:23;;;;;;;6.30;3.90;;;;;;;51.77;9.24;99937.97;5053551;28;20402;-57
2022/08/07 05:55:50;;;;;;;4.15;3.70;;;;;;;50.12;10.39;99928.78;5051522;28;20027;-60
2022/08/07 05:58:17;;;;;;;6.88;4.53;;;;;;;47.20;12.37;99937.13;5052683;28;20033;-60
2022/08/07 06:00:45;;;;;;;6.93;3.92;;;;;;;44.74;14.36;99938.50;5053531;28;20036;-58
2022/08/07 06:03:11;;;;;;;3.80;3.40;;;;;;;42.98;15.96;99937.38;5051881;28;20032;-54
2022/08/07 06:05:37;;;;;;;7.32;4.20;;;;;;;41.75;17.42;99920.91;5053041;28;20116;-57
2022/08/07 06:08:03;;;;;;;7.30;4.57;;;;;;;40.98;18.43;99930.53;5053364;28;20103;-57
2022/08/07 06:10:30;;;;;;;7.63;4.35;;;;;;;40.16;19.79;99933.69;5050679;28;20060;-58
2022/08/07 06:12:56;;;;;;;6.55;4.32;;;;;;;39.53;19.96;99939.94;5035606;28;20045;-54
2022/08/07 06:15:23;;;;;;;8.50;4.70;;;;;;;39.10;20.48;99921.59;5033169;28;20032;-54
2022/08/07 06:17:51;;;;;;;5.75;4.95;;;;;;;39.07;20.54;99933.41;5040757;28;20058;-59
2022/08/07 06:20:17;;;;;;;7.70;5.05;;;;;;;39.79;19.69;99930.09;5051920;28;20481;-63
2022/08/07 06:22:43;;;;;;;9.90;4.80;;;;;;;42.24;17.43;99942.31;5053415;28;20122;-56
2022/08/07 06:25:09;;;;;;;9.70;5.10;;;;;;;43.23;16.31;99943.16;5050901;28;20037;-57
2022/08/07 06:27:36;;;;;;;9.45;5.07;;;;;;;42.79;16.65;99939.78;5052598;28;20119;-57
2022/08/07 06:30:02;;;;;;;8.23;5.22;;;;;;;44.03;15.18;99918.75;5052912;28;20060;-57
2022/08/07 06:32:29;;;;;;;8.45;4.47;;;;;;;45.62;13.98;99944.00;5039554;28;20033;-53
2022/08/07 06:34:55;;;;;;;7.43;4.80;;;;;;;46.04;13.75;99940.72;5032925;28;20047;-59
2022/08/07 06:37:20;;;;;;;11.15;4.25;;;;;;;44.86;14.82;99929.19;5033986;28;20075;-58
2022/08/07 06:39:46;;;;;;;8.52;4.43;;;;;;;44.61;15.54;99927.56;5033213;28;20026;-58
2022/08/07 06:42:23;;;;;;;10.93;4.90;;;;;;;43.57;16.37;99946.06;5032920;28;20033;-60
2022/08/07 06:44:50;;;;;;;7.32;4.70;;;;;;;42.21;17.44;99940.19;5033859;28;20026;-58
2022/08/07 06:47:16;;;;;;;12.95;4.82;;;;;;;41.42;18.09;99927.00;5031866;28;20025;-55
2022/08/07 06:49:43;;;;;;;10.80;4.78;;;;;;;40.39;19.19;99947.66;5032879;28;20030;-56
2022/08/07 06:52:10;;;;;;;8.10;5.07;;;;;;;39.15;20.90;99951.47;5033862;28;20037;-54
2022/08/07 06:54:38;;;;;;;9.60;5.15;;;;;;;38.02;21.94;99949.66;5032604;28;20478;-54
2022/08/07 06:57:05;;;;;;;7.30;4.70;;;;;;;37.09;23.32;99942.63;5032862;28;20022;-53
2022/08/07 06:59:34;;;;;;;10.50;5.20;;;;;;;36.15;24.12;99943.63;5050435;28;20033;-55
2022/08/07 07:02:00;;;;;;;7.93;4.97;;;;;;;35.34;25.41;99944.72;5052039;28;20072;-55
2022/08/07 07:04:26;;;;;;;8.50;5.28;;;;;;;34.70;26.33;99946.38;5050742;28;20057;-56
2022/08/07 07:06:52;;;;;;;9.63;5.40;;;;;;;34.33;27.12;99942.81;5052335;28;20529;-55
2022/08/07 07:09:26;;;;;;;8.32;4.75;;;;;;;34.11;27.60;99940.34;5051025;28;20104;-54
2022/08/07 07:12:07;;;;;;;8.20;5.03;;;;;;;33.72;27.89;99952.78;5032147;28;20124;-57
2022/08/07 07:14:43;;;;;;;10.40;5.05;;;;;;;32.95;29.10;99929.28;5032620;28;20053;-51
2022/08/07 07:17:15;;;;;;;7.93;5.10;;;;;;;32.59;29.82;99957.63;5032390;28;20419;-57
2022/08/07 07:19:47;;;;;;;13.45;5.13;;;;;;;32.19;30.67;99970.03;5030877;28;20037;-59
2022/08/07 07:22:16;;;;;;;9.88;5.20;;;;;;;31.79;31.30;99969.44;5032051;28;20033;-57
2022/08/07 07:24:42;;;;;;;8.85;5.40;;;;;;;31.46;32.06;99969.34;5032643;28;20116;-55
2022/08/07 07:27:12;;;;;;;7.55;5.13;;;;;;;31.24;32.47;99961.09;5032245;28;20035;-56
2022/08/07 07:29:42;;;;;;;12.82;5.43;;;;;;;31.06;32.77;99965.81;5032924;28;20037;-52
2022/08/07 07:32:11;;;;;;;10.38;5.35;;;;;;;30.99;33.10;99964.31;5031509;28;20389;-54
2022/08/07 07:34:42;;;;;;;6.35;4.85;;;;;;;31.00;32.94;99964.09;5032992;28;20043;-55
2022/08/07 07:37:10;;;;;;;9.90;4.80;;;;;;;31.08;32.97;99948.97;5031881;28;20029;-55
2022/08/07 07:39:37;;;;;;;8.80;5.30;;;;;;;31.07;33.01;99947.31;5031534;28;20036;-53
2022/08/07 07:42:04;;;;;;;8.80;4.82;;;;;;;31.20;32.89;99943.34;5031990;28;20107;-53
2022/08/07 07:44:31;;;;;;;7.68;5.78;;;;;;;31.34;32.73;99928.00;5031560;28;20037;-56
2022/08/07 07:46:59;;;;;;;8.77;4.82;;;;;;;32.43;30.71;99945.59;5031905;28;20026;-55
2022/08/07 07:49:27;;;;;;;9.93;5.18;;;;;;;36.14;25.88;99938.34;5030993;28;20029;-58
2022/08/07 07:51:55;;;;;;;8.18;4.90;;;;;;;40.31;20.47;99938.06;5030875;28;20034;-55
2022/08/07 07:54:22;;;;;;;8.93;5.43;;;;;;;42.83;17.37;99938.75;5040132;28;20021;-66
2022/08/07 07:56:51;;;;;;;7.00;4.78;;;;;;;43.29;16.67;99927.72;5051436;28;20029;-54
2022/08/07 07:59:18;;;;;;;6.63;4.90;;;;;;;43.57;16.70;99941.25;5051377;28;20032;-55
2022/08/07 08:01:47;;;;;;;8.77;4.82;;;;;;;43.60;16.50;99940.53;5049239;28;20124;-53
2022/08/07 08:04:16;;;;;;;13.57;5.50;;;;;;;44.58;16.24;99934.72;5045537;28;20120;-55
2022/08/07 08:06:44;;;;;;;9.27;5.07;;;;;;;44.59;16.04;99942.03;5031348;28;20057;-57
2022/08/07 08:09:11;;;;;;;5.97;4.55;;;;;;;43.23;16.98;99940.34;5032098;28;20033;-54
2022/08/07 08:11:37;;;;;;;8.40;5.18;;;;;;;42.54;17.91;99945.19;5030991;28;20045;-57
2022/08/07 08:14:03;;;;;;;6.35;4.60;;;;;;;42.11;18.39;99944.97;5032396;28;20037;-53
2022/08/07 08:16:37;;;;;;;9.98;4.55;;;;;;;41.69;18.58;99937.09;5031106;28;20037;-56
2022/08/07 08:19:07;;;;;;;5.43;4.88;;;;;;;41.07;19.21;99935.38;5031002;28;20052;-56
2022/08/07 08:27:08;;;;;;;11.13;5.47;;;;;;;38.90;21.98;99934.88;5034801;28;20440;-56
2022/08/07 08:29:40;;;;;;;6.72;4.93;;;;;;;38.38;22.41;99935.06;5030633;28;20037;-54
2022/08/07 08:32:08;;;;;;;10.00;5.30;;;;;;;37.65;23.91;99929.84;5031923;28;20493;-57
2022/08/07 08:34:36;;;;;;;8.68;5.88;;;;;;;37.13;24.81;99919.41;5030975;28;20428;-55
2022/08/07 08:37:05;;;;;;;8.77;5.55;;;;;;;36.76;24.79;99926.53;5030878;28;20060;-57
2022/08/07 08:39:31;;;;;;;9.75;5.30;;;;;;;36.62;25.58;99918.06;5031723;28;20025;-55
2022/08/07 08:42:26;;;;;;;11.88;5.75;;;;;;;36.87;24.61;99918.88;5030773;28;20500;-61
2022/08/07 08:45:24;;;;;;;11.07;5.43;;;;;;;36.97;25.04;99909.56;5032338;28;20021;-54
2022/08/07 08:48:07;;;;;;;10.43;5.80;;;;;;;36.96;25.13;99905.09;5050777;28;20086;-55
2022/08/07 08:51:50;;;;;;;8.27;5.35;;;;;;;37.07;24.54;99901.09;5050665;28;20045;-53
2022/08/07 08:54:27;;;;;;;11.40;5.70;;;;;;;36.85;25.05;99907.19;5028405;28;20510;-54
2022/08/07 08:56:56;;;;;;;11.18;5.50;;;;;;;36.61;25.80;99899.69;5028591;28;20525;-54
2022/08/07 08:59:49;;;;;;;9.73;5.53;;;;;;;36.92;24.98;99907.69;5038106;28;20049;-55
2022/08/07 09:02:35;;;;;;;10.68;5.32;;;;;;;36.99;24.62;99890.53;5033977;28;20368;-56
2022/08/07 09:05:17;;;;;;;10.35;4.97;;;;;;;37.01;24.29;99889.16;5029218;28;20137;-56
2022/08/07 09:08:09;;;;;;;9.45;5.10;;;;;;;37.17;24.13;99902.91;5028382;28;20065;-56
2022/08/07 09:10:43;;;;;;;9.52;4.65;;;;;;;37.25;24.43;99898.59;5028964;28;20052;-58
2022/08/07 09:13:36;;;;;;;8.23;4.07;;;;;;;37.47;22.90;99906.38;5028414;28;20094;-57
2022/08/07 09:16:30;;;;;;;7.97;3.25;;;;;;;37.47;22.17;99892.41;5028171;28;20041;-58
2022/08/07 09:19:10;;;;;;;5.57;3.15;;;;;;;37.48;21.69;99888.47;5029473;28;20077;-57
2022/08/07 09:21:57;;;;;;;4.93;3.50;;;;;;;37.45;21.88;99886.28;5028351;28;20148;-57
2022/08/07 09:24:38;;;;;;;3.60;3.25;;;;;;;36.87;22.36;99888.19;5030336;28;20053;-58
2022/08/07 09:27:34;;;;;;;4.25;3.15;;;;;;;36.60;23.00;99889.66;5030107;28;20477;-55
2022/08/07 09:30:05;;;;;;;4.22;3.55;;;;;;;36.17;23.57;99887.59;5031512;28;20033;-57
2022/08/07 09:32:59;;;;;;;8.88;3.58;;;;;;;36.05;24.09;99882.41;5030492;28;20049;-55
2022/08/07 09:35:50;;;;;;;7.15;3.42;;;;;;;35.96;24.10;99884.97;5031078;28;20033;-60
2022/08/07 09:38:37;;;;;;;5.47;3.67;;;;;;;35.96;24.14;99875.81;5030115;28;20038;-52
2022/08/07 09:41:21;;;;;;;5.70;3.97;;;;;;;35.90;24.06;99870.25;5030700;28;20478;-52
2022/08/07 09:44:17;;;;;;;7.20;3.63;;;;;;;35.88;23.86;99860.56;5033772;28;20037;-55
2022/08/07 09:47:22;;;;;;;5.82;3.85;;;;;;;35.86;23.73;99866.41;5033573;28;20362;-56
2022/08/07 09:49:58;;;;;;;7.38;3.80;;;;;;;35.67;23.30;99871.03;5033888;28;20068;-52
2022/08/07 09:52:48;;;;;;;6.47;3.60;;;;;;;35.69;23.64;99854.84;5032869;28;20033;-56
2022/08/07 09:55:28;;;;;;;4.90;3.70;;;;;;;35.77;23.71;99857.84;5050105;28;20025;-60
2022/08/07 09:58:00;;;;;;;6.00;3.88;;;;;;;35.59;23.48;99845.47;5034760;28;20560;-54
2022/08/07 10:00:32;;;;;;;9.43;3.60;;;;;;;35.53;23.11;99856.94;5034853;28;20033;-55
2022/08/07 10:03:00;;;;;;;6.95;3.50;;;;;;;35.47;23.61;99853.38;5033964;28;20041;-55
2022/08/07 10:05:34;;;;;;;4.53;3.50;;;;;;;35.40;23.53;99836.13;5034823;28;20079;-57
2022/08/07 10:08:24;;;;;;;11.45;3.72;;;;;;;35.70;23.24;99843.44;5033488;28;20038;-59
2022/08/07 10:11:11;;;;;;;5.32;3.58;;;;;;;35.76;22.93;99838.66;5033179;28;20139;-55
2022/08/07 10:13:58;;;;;;;6.15;3.80;;;;;;;35.57;23.57;99846.88;5034262;28;20374;-57
2022/08/07 10:16:26;;;;;;;7.65;3.60;;;;;;;35.63;23.57;99841.00;5033284;28;20128;-54
2022/08/07 10:19:30;;;;;;;12.90;3.90;;;;;;;35.86;23.33;99838.56;5034099;28;20033;-56
2022/08/07 10:22:08;;;;;;;9.07;3.55;;;;;;;35.66;23.20;99852.66;5032654;28;20103;-52
2022/08/07 10:24:48;;;;;;;5.00;3.50;;;;;;;35.54;23.67;99856.66;5034205;28;20031;-56
2022/08/07 10:27:35;;;;;;;4.60;3.83;;;;;;;35.50;23.71;99850.00;5033145;28;20388;-55
2022/08/07 10:30:15;;;;;;;5.95;4.03;;;;;;;35.52;23.90;99860.84;5033516;28;20037;-66
2022/08/07 10:32:58;;;;;;;4.07;3.67;;;;;;;35.41;24.32;99852.56;5052370;28;20449;-53
2022/08/07 10:35:28;;;;;;;4.53;3.80;;;;;;;35.14;24.42;99839.13;5052494;28;20052;-55
2022/08/07 10:38:05;;;;;;;5.70;3.78;;;;;;;35.03;24.28;99849.47;5051113;28;20536;-55
2022/08/07 10:40:55;;;;;;;6.03;4.30;;;;;;;35.15;24.50;99846.34;5053028;28;20058;-64
2022/08/07 10:43:32;;;;;;;6.00;3.85;;;;;;;35.12;23.82;99842.19;5050771;28;20831;-56
2022/08/07 10:46:00;;;;;;;4.70;3.28;;;;;;;35.15;24.11;99830.50;5033277;28;20041;-55
2022/08/07 10:48:43;;;;;;;5.40;3.80;;;;;;;35.21;23.75;99825.72;5032761;28;20040;-54
2022/08/07 10:51:22;;;;;;;5.22;4.10;;;;;;;35.13;24.11;99813.25;5040250;28;20063;-54
2022/08/07 10:54:16;;;;;;;4.70;3.67;;;;;;;35.22;23.97;99810.69;5051549;28;20041;-55
2022/08/07 10:56:41;;;;;;;5.88;3.95;;;;;;;35.17;24.10;99808.78;5052650;28;20500;-54
2022/08/07 10:59:37;;;;;;;5.57;3.70;;;;;;;35.35;23.74;99804.44;5050437;28;20049;-53
2022/08/07 11:02:17;;;;;;;;;;;;;;;35.79;23.40;99804.66;5052771;28;20281;-57
2022/08/07 11:04:42;;;;;;;5.80;3.75;;;;;;;35.45;23.25;99803.53;5050690;28;20420;-57
2022/08/07 11:07:23;;;;;;;3.90;3.23;;;;;;;35.39;23.25;99809.44;5052789;28;20112;-58
2022/08/07 11:09:56;;;;;;;4.13;3.22;;;;;;;35.28;23.80;99803.97;5050375;28;20313;-54
2022/08/07 11:12:36;;;;;;;6.90;3.55;;;;;;;35.30;23.74;99806.44;5052190;28;20159;-55
2022/08/07 11:15:10;;;;;;;4.75;3.40;;;;;;;35.12;23.59;99802.41;5049603;28;20033;-56
2022/08/07 11:17:47;;;;;;;3.78;3.40;;;;;;;34.99;23.76;99809.41;5052271;28;20048;-55
2022/08/07 11:20:21;;;;;;;6.18;3.60;;;;;;;34.71;24.20;99795.94;5051508;28;20033;-60
2022/08/07 11:23:13;;;;;;;7.57;3.67;;;;;;;34.53;24.41;99797.44;5051194;28;20465;-56
2022/08/07 11:25:47;;;;;;;5.30;3.40;;;;;;;34.29;24.75;99802.78;5052191;28;20048;-57
2022/08/07 11:28:18;;;;;;;4.10;3.80;;;;;;;34.07;24.95;99806.75;5050178;28;20036;-57
2022/08/07 11:30:53;;;;;;;44.88;6.45;;;;;;;33.89;27.23;99814.53;5044561;28;20030;-56
2022/08/07 11:33:37;;;;;;;80.45;9.50;;;;;;;33.33;28.91;99838.41;5033259;28;20504;-55
2022/08/07 11:36:21;;;;;;;17.67;5.30;;;;;;;32.56;31.31;99847.31;5032597;28;20029;-55
2022/08/07 11:39:00;;;;;;;17.45;4.85;;;;;;;32.15;31.23;99841.50;5031929;28;20374;-56
2022/08/07 11:41:31;;;;;;;7.70;4.53;;;;;;;31.78;33.65;99876.41;5045698;28;20052;-58
2022/08/07 11:44:21;;;;;;;8.27;4.43;;;;;;;31.38;33.23;99874.94;5051776;28;20506;-56
2022/08/07 11:47:15;;;;;;;6.95;4.50;;;;;;;30.93;34.85;99873.03;5050118;28;20047;-56
2022/08/07 11:50:00;;;;;;;5.72;5.13;;;;;;;30.46;35.53;99866.09;5051021;28;20488;-56
2022/08/07 11:52:38;;;;;;;7.60;4.93;;;;;;;30.16;36.38;99878.38;5051551;28;20428;-57
2022/08/07 11:55:17;;;;;;;6.05;4.13;;;;;;;29.93;35.57;99890.41;5050064;28;20040;-57
2022/08/07 11:57:51;;;;;;;5.47;5.05;;;;;;;29.54;36.89;99896.63;5051565;28;20028;-55
2022/08/07 12:00:25;;;;;;;5.93;4.70;;;;;;;29.44;37.13;99896.47;5050390;28;20076;-56